Alba, Illinois
Current Conditions -  °F | °C
As of 3:52 PM on Wednesday 22 Oct 2014 (Local Time) from KMLI Reporting Station
Clear Clear  
Wind Chill: 61°   Ceiling: Unl
Heat Index: 61°   Visibility: 10mi
Dew Point: 38°   Wind: 8mph
Humidity: 42%   Direction: 160°SSE
Pressure: 30.24"   Gusts: NA
Location:  41.4097°N, 90.0293°W
Report Text: KMLI 222052Z 16007KT 10SM CLR 16/03 A3024 RMK AO2 SLP242 T01610033 56021
Loading
Personal Weather Stations






























Interactive Weather Map
Tropical Storm Tracking
New forecast layout! Learn more

10-Day Weather Forecast

Advertisements
Track Severe Weather on mobile